sensor_id;sensor_type;location;lat;lon;timestamp;pressure;altitude;pressure_sealevel;temperature;humidity
48644;BME280;34928;37.302;-121.984;2024-01-27T00:09:28;101873.0;;;24.62;32.46
48644;BME280;34928;37.302;-121.984;2024-01-27T00:19:33;101882.0;;;24.86;32.22
48644;BME280;34928;37.302;-121.984;2024-01-27T00:29:37;101884.0;;;24.65;32.14
48644;BME280;34928;37.302;-121.984;2024-01-27T00:39:43;101882.0;;;24.65;32.02
48644;BME280;34928;37.302;-121.984;2024-01-27T00:49:47;101887.0;;;24.65;31.93
48644;BME280;34928;37.302;-121.984;2024-01-27T00:59:52;101882.0;;;24.69;31.81
48644;BME280;34928;37.302;-121.984;2024-01-27T01:09:58;101884.0;;;24.92;31.81
48644;BME280;34928;37.302;-121.984;2024-01-27T01:20:02;101886.0;;;24.89;31.89
48644;BME280;34928;37.302;-121.984;2024-01-27T01:30:08;101883.0;;;24.93;31.84
48644;BME280;34928;37.302;-121.984;2024-01-27T01:40:13;101897.0;;;24.67;31.91
48644;BME280;34928;37.302;-121.984;2024-01-27T01:50:18;101906.0;;;24.82;31.93
48644;BME280;34928;37.302;-121.984;2024-01-27T02:00:23;101924.0;;;24.52;32.13
48644;BME280;34928;37.302;-121.984;2024-01-27T02:10:27;101945.0;;;24.77;32.08
48644;BME280;34928;37.302;-121.984;2024-01-27T02:20:33;101934.0;;;24.86;32.02
48644;BME280;34928;37.302;-121.984;2024-01-27T02:30:37;101933.0;;;25.00;32.10
48644;BME280;34928;37.302;-121.984;2024-01-27T02:40:43;101944.0;;;25.08;31.84
48644;BME280;34928;37.302;-121.984;2024-01-27T02:50:48;101951.0;;;24.94;32.20
48644;BME280;34928;37.302;-121.984;2024-01-27T03:00:54;101953.0;;;25.14;31.70
48644;BME280;34928;37.302;-121.984;2024-01-27T03:10:57;101927.0;;;24.97;31.98
48644;BME280;34928;37.302;-121.984;2024-01-27T03:21:03;101937.0;;;25.18;31.91
48644;BME280;34928;37.302;-121.984;2024-01-27T03:31:07;101946.0;;;25.14;31.82
48644;BME280;34928;37.302;-121.984;2024-01-27T03:41:13;101946.0;;;25.33;31.98
48644;BME280;34928;37.302;-121.984;2024-01-27T03:51:18;101957.0;;;25.15;31.72
48644;BME280;34928;37.302;-121.984;2024-01-27T04:01:22;101954.0;;;25.06;31.73
48644;BME280;34928;37.302;-121.984;2024-01-27T04:11:27;101943.0;;;24.94;31.92
48644;BME280;34928;37.302;-121.984;2024-01-27T04:21:32;101932.0;;;25.12;32.01
48644;BME280;34928;37.302;-121.984;2024-01-27T04:31:40;101967.0;;;25.07;32.02
48644;BME280;34928;37.302;-121.984;2024-01-27T04:41:48;101973.0;;;25.03;31.99
48644;BME280;34928;37.302;-121.984;2024-01-27T04:51:53;101969.0;;;25.09;32.09
48644;BME280;34928;37.302;-121.984;2024-01-27T05:01:58;101967.0;;;24.96;32.56
48644;BME280;34928;37.302;-121.984;2024-01-27T05:12:03;101975.0;;;25.00;32.25
48644;BME280;34928;37.302;-121.984;2024-01-27T05:22:07;101971.0;;;25.27;32.20
48644;BME280;34928;37.302;-121.984;2024-01-27T05:32:13;101953.0;;;25.05;32.88
48644;BME280;34928;37.302;-121.984;2024-01-27T05:42:18;101967.0;;;25.22;35.56
48644;BME280;34928;37.302;-121.984;2024-01-27T05:52:23;101988.0;;;25.16;33.23
48644;BME280;34928;37.302;-121.984;2024-01-27T06:02:28;101998.0;;;25.31;33.83
48644;BME280;34928;37.302;-121.984;2024-01-27T06:12:34;101999.0;;;25.18;35.37
48644;BME280;34928;37.302;-121.984;2024-01-27T06:22:38;101994.0;;;25.18;33.06
48644;BME280;34928;37.302;-121.984;2024-01-27T06:32:42;101992.0;;;25.13;35.84
48644;BME280;34928;37.302;-121.984;2024-01-27T06:42:48;101998.0;;;24.91;34.36
48644;BME280;34928;37.302;-121.984;2024-01-27T06:52:53;102000.0;;;25.02;35.62
48644;BME280;34928;37.302;-121.984;2024-01-27T07:02:59;102009.0;;;25.01;36.04
48644;BME280;34928;37.302;-121.984;2024-01-27T07:13:03;102009.0;;;25.23;36.47
48644;BME280;34928;37.302;-121.984;2024-01-27T07:23:08;102003.0;;;24.91;36.50
48644;BME280;34928;37.302;-121.984;2024-01-27T07:33:14;102010.0;;;24.90;36.81
48644;BME280;34928;37.302;-121.984;2024-01-27T07:43:19;102005.0;;;24.81;36.09
48644;BME280;34928;37.302;-121.984;2024-01-27T07:53:27;102015.0;;;24.89;35.51
48644;BME280;34928;37.302;-121.984;2024-01-27T08:03:33;102011.0;;;25.23;36.55
48644;BME280;34928;37.302;-121.984;2024-01-27T08:13:43;102014.0;;;24.81;35.86
48644;BME280;34928;37.302;-121.984;2024-01-27T08:23:48;102010.0;;;24.75;35.83
48644;BME280;34928;37.302;-121.984;2024-01-27T08:33:52;102003.0;;;24.95;35.46
48644;BME280;34928;37.302;-121.984;2024-01-27T08:43:57;101987.0;;;24.64;35.61
48644;BME280;34928;37.302;-121.984;2024-01-27T08:54:03;101974.0;;;24.77;36.31
48644;BME280;34928;37.302;-121.984;2024-01-27T09:04:08;101964.0;;;24.44;36.39
48644;BME280;34928;37.302;-121.984;2024-01-27T09:14:14;101946.0;;;24.48;35.51
48644;BME280;34928;37.302;-121.984;2024-01-27T09:24:22;101940.0;;;24.42;35.61
48644;BME280;34928;37.302;-121.984;2024-01-27T09:34:30;101933.0;;;24.56;34.77
48644;BME280;34928;37.302;-121.984;2024-01-27T09:44:38;101920.0;;;24.66;34.71
48644;BME280;34928;37.302;-121.984;2024-01-27T09:54:43;101917.0;;;24.73;35.05
48644;BME280;34928;37.302;-121.984;2024-01-27T10:04:49;101918.0;;;24.21;35.36
48644;BME280;34928;37.302;-121.984;2024-01-27T10:14:53;101897.0;;;24.39;35.10
48644;BME280;34928;37.302;-121.984;2024-01-27T10:24:57;101889.0;;;24.48;35.15
48644;BME280;34928;37.302;-121.984;2024-01-27T10:35:06;101883.0;;;24.42;35.39
48644;BME280;34928;37.302;-121.984;2024-01-27T10:45:12;101879.0;;;24.34;35.41
48644;BME280;34928;37.302;-121.984;2024-01-27T10:55:18;101874.0;;;24.36;34.79
48644;BME280;34928;37.302;-121.984;2024-01-27T11:05:24;101871.0;;;24.26;34.70
48644;BME280;34928;37.302;-121.984;2024-01-27T11:15:29;101863.0;;;24.20;34.86
48644;BME280;34928;37.302;-121.984;2024-01-27T11:25:33;101863.0;;;24.17;34.60
48644;BME280;34928;37.302;-121.984;2024-01-27T11:35:38;101865.0;;;24.05;33.49
48644;BME280;34928;37.302;-121.984;2024-01-27T11:45:43;101872.0;;;23.90;34.22
48644;BME280;34928;37.302;-121.984;2024-01-27T11:55:55;101874.0;;;23.79;34.09
48644;BME280;34928;37.302;-121.984;2024-01-27T12:06:02;101873.0;;;23.83;34.13
48644;BME280;34928;37.302;-121.984;2024-01-27T12:16:08;101864.0;;;23.70;34.15
48644;BME280;34928;37.302;-121.984;2024-01-27T12:26:15;101864.0;;;23.68;34.03
48644;BME280;34928;37.302;-121.984;2024-01-27T12:36:23;101872.0;;;23.94;34.54
48644;BME280;34928;37.302;-121.984;2024-01-27T12:46:28;101871.0;;;23.72;33.58
48644;BME280;34928;37.302;-121.984;2024-01-27T12:56:33;101876.0;;;23.47;33.18
48644;BME280;34928;37.302;-121.984;2024-01-27T13:06:37;101876.0;;;23.63;33.97
48644;BME280;34928;37.302;-121.984;2024-01-27T13:16:42;101864.0;;;23.28;33.80
48644;BME280;34928;37.302;-121.984;2024-01-27T13:26:48;101871.0;;;23.21;33.44
48644;BME280;34928;37.302;-121.984;2024-01-27T13:36:53;101876.0;;;23.46;33.05
48644;BME280;34928;37.302;-121.984;2024-01-27T13:46:58;101868.0;;;23.56;33.15
48644;BME280;34928;37.302;-121.984;2024-01-27T13:57:03;101866.0;;;23.19;32.53
48644;BME280;34928;37.302;-121.984;2024-01-27T14:07:08;101868.0;;;23.44;33.15
48644;BME280;34928;37.302;-121.984;2024-01-27T14:17:17;101879.0;;;23.50;33.54
48644;BME280;34928;37.302;-121.984;2024-01-27T14:27:24;101879.0;;;23.35;33.72
48644;BME280;34928;37.302;-121.984;2024-01-27T14:37:28;101890.0;;;23.53;33.74
48644;BME280;34928;37.302;-121.984;2024-01-27T14:47:34;101887.0;;;23.63;33.34
48644;BME280;34928;37.302;-121.984;2024-01-27T14:57:38;101921.0;;;23.58;33.73
48644;BME280;34928;37.302;-121.984;2024-01-27T15:07:43;101932.0;;;23.81;33.59
48644;BME280;34928;37.302;-121.984;2024-01-27T15:17:48;101951.0;;;24.10;33.22
48644;BME280;34928;37.302;-121.984;2024-01-27T15:27:53;101953.0;;;24.08;33.33
48644;BME280;34928;37.302;-121.984;2024-01-27T15:37:58;101961.0;;;24.34;33.19
48644;BME280;34928;37.302;-121.984;2024-01-27T15:48:02;101965.0;;;24.32;33.09
48644;BME280;34928;37.302;-121.984;2024-01-27T15:58:08;101970.0;;;24.35;33.16
48644;BME280;34928;37.302;-121.984;2024-01-27T16:08:14;101961.0;;;24.68;32.48
48644;BME280;34928;37.302;-121.984;2024-01-27T16:18:18;101963.0;;;24.50;32.64
48644;BME280;34928;37.302;-121.984;2024-01-27T16:28:22;101970.0;;;24.30;32.30
48644;BME280;34928;37.302;-121.984;2024-01-27T16:38:27;101957.0;;;24.49;32.09
48644;BME280;34928;37.302;-121.984;2024-01-27T16:48:39;101952.0;;;24.50;32.49
48644;BME280;34928;37.302;-121.984;2024-01-27T16:58:43;101953.0;;;24.45;32.53
48644;BME280;34928;37.302;-121.984;2024-01-27T17:08:47;101957.0;;;24.19;32.42
48644;BME280;34928;37.302;-121.984;2024-01-27T17:18:53;101950.0;;;24.42;32.38
48644;BME280;34928;37.302;-121.984;2024-01-27T17:28:58;101951.0;;;24.40;32.49
48644;BME280;34928;37.302;-121.984;2024-01-27T17:39:04;101972.0;;;23.86;33.98
48644;BME280;34928;37.302;-121.984;2024-01-27T17:49:08;101976.0;;;23.66;33.92
48644;BME280;34928;37.302;-121.984;2024-01-27T17:59:12;101978.0;;;23.96;33.40
48644;BME280;34928;37.302;-121.984;2024-01-27T18:09:17;101991.0;;;23.63;33.21
48644;BME280;34928;37.302;-121.984;2024-01-27T18:19:23;101996.0;;;24.25;32.97
48644;BME280;34928;37.302;-121.984;2024-01-27T18:29:27;102007.0;;;24.24;33.05
48644;BME280;34928;37.302;-121.984;2024-01-27T18:39:34;102004.0;;;24.33;33.44
48644;BME280;34928;37.302;-121.984;2024-01-27T18:49:37;101994.0;;;24.35;33.29
48644;BME280;34928;37.302;-121.984;2024-01-27T18:59:42;101993.0;;;24.39;33.19
48644;BME280;34928;37.302;-121.984;2024-01-27T19:09:47;101979.0;;;24.43;33.13
48644;BME280;34928;37.302;-121.984;2024-01-27T19:19:52;101972.0;;;24.47;33.06
48644;BME280;34928;37.302;-121.984;2024-01-27T19:29:58;101953.0;;;23.98;33.03
48644;BME280;34928;37.302;-121.984;2024-01-27T19:40:04;101939.0;;;24.06;32.95
48644;BME280;34928;37.302;-121.984;2024-01-27T19:50:08;101917.0;;;24.11;32.89
48644;BME280;34928;37.302;-121.984;2024-01-27T20:00:13;101901.0;;;24.15;32.86
48644;BME280;34928;37.302;-121.984;2024-01-27T20:10:18;101895.0;;;24.19;32.78
48644;BME280;34928;37.302;-121.984;2024-01-27T20:20:22;101861.0;;;24.23;32.76
48644;BME280;34928;37.302;-121.984;2024-01-27T20:30:27;101845.0;;;24.28;32.69
48644;BME280;34928;37.302;-121.984;2024-01-27T20:40:32;101820.0;;;24.38;32.58
48644;BME280;34928;37.302;-121.984;2024-01-27T20:50:38;101798.0;;;24.59;32.59
48644;BME280;34928;37.302;-121.984;2024-01-27T21:00:42;101773.0;;;24.91;32.63
48644;BME280;34928;37.302;-121.984;2024-01-27T21:10:47;101747.0;;;24.70;32.52
48644;BME280;34928;37.302;-121.984;2024-01-27T21:20:53;101741.0;;;24.49;32.55
48644;BME280;34928;37.302;-121.984;2024-01-27T21:30:58;101715.0;;;24.54;32.54
48644;BME280;34928;37.302;-121.984;2024-01-27T21:41:02;101699.0;;;24.55;32.77
48644;BME280;34928;37.302;-121.984;2024-01-27T21:51:10;101681.0;;;24.63;32.71
48644;BME280;34928;37.302;-121.984;2024-01-27T22:01:12;101657.0;;;24.50;32.90
48644;BME280;34928;37.302;-121.984;2024-01-27T22:11:18;101649.0;;;24.61;32.60
48644;BME280;34928;37.302;-121.984;2024-01-27T22:21:23;101655.0;;;24.51;33.06
48644;BME280;34928;37.302;-121.984;2024-01-27T22:31:30;101632.0;;;24.60;33.25
48644;BME280;34928;37.302;-121.984;2024-01-27T22:41:37;101620.0;;;24.59;32.78
48644;BME280;34928;37.302;-121.984;2024-01-27T22:51:43;101618.0;;;24.67;33.02
48644;BME280;34928;37.302;-121.984;2024-01-27T23:01:48;101617.0;;;24.77;32.49
48644;BME280;34928;37.302;-121.984;2024-01-27T23:11:53;101625.0;;;24.94;32.34
48644;BME280;34928;37.302;-121.984;2024-01-27T23:21:57;101617.0;;;25.00;32.50
48644;BME280;34928;37.302;-121.984;2024-01-27T23:32:04;101627.0;;;25.04;32.43
48644;BME280;34928;37.302;-121.984;2024-01-27T23:42:08;101633.0;;;24.80;32.53
48644;BME280;34928;37.302;-121.984;2024-01-27T23:52:13;101631.0;;;25.10;32.55
